Terminal Aerodrome Forecast
Issued by NWS

Home | Current Version | Previous Version | Text Only | Print | Product List | Glossary On
Versions: 1 2 3 4 5 6 7 8 9 10 11 12 13
000
FTUS45 KREV 210500
TAFMMH
TAF
KMMH 210522Z 2106/2206 27011KT P6SM VCSH SCT040 BKN070
     FM210900 29008KT P6SM SCT050 BKN080
     FM212100 24010G18KT P6SM SCT080 BKN150
      AMD NOT SKED TIL 211400=

USA.gov is the U.S. government's official web portal to all federal, state and local government web resources and services.